createdAt,value
2019-01-31T00:02:58.287Z,7.93
2019-01-31T00:08:11.948Z,8.21
2019-01-31T00:13:25.223Z,8.24
2019-01-31T00:18:38.524Z,8.22
2019-01-31T00:24:04.571Z,7.71
2019-01-31T00:29:24.468Z,8.08
2019-01-31T00:35:06.688Z,7.75
2019-01-31T00:40:20.441Z,7.83
2019-01-31T00:45:30.916Z,8.00
2019-01-31T00:51:00.024Z,8.09
2019-01-31T00:56:07.848Z,7.56
2019-01-31T01:01:43.003Z,7.18
2019-01-31T01:06:56.553Z,7.89
2019-01-31T01:12:32.633Z,7.72
2019-01-31T01:17:40.361Z,7.62
2019-01-31T01:22:53.890Z,8.00
2019-01-31T01:28:04.602Z,8.09
2019-01-31T01:33:24.060Z,8.09
2019-01-31T01:38:34.538Z,8.19
2019-01-31T01:44:06.929Z,8.08
2019-01-31T01:49:17.161Z,7.39
2019-01-31T01:54:41.404Z,7.66
2019-01-31T02:00:04.067Z,7.83
2019-01-31T02:05:23.941Z,7.53
2019-01-31T02:10:37.309Z,7.82
2019-01-31T02:15:50.962Z,7.46
2019-01-31T02:21:14.034Z,7.32
2019-01-31T02:26:24.611Z,7.28
2019-01-31T02:31:38.150Z,7.42
2019-01-31T02:36:54.576Z,7.80
2019-01-31T02:42:31.439Z,7.61
2019-01-31T02:47:57.517Z,7.65
2019-01-31T02:53:22.020Z,7.61
2019-01-31T02:58:52.468Z,7.70
2019-01-31T03:04:29.258Z,7.76
2019-01-31T03:09:55.025Z,7.87
2019-01-31T03:14:58.303Z,7.38
2019-01-31T03:20:06.221Z,7.42
2019-01-31T03:25:22.949Z,7.28
2019-01-31T03:30:47.363Z,7.70
2019-01-31T03:36:04.174Z,7.03
2019-01-31T03:41:32.775Z,6.08
2019-01-31T03:46:55.542Z,6.91
2019-01-31T03:52:08.869Z,6.92
2019-01-31T03:57:16.700Z,6.37
2019-01-31T04:02:30.661Z,6.45
2019-01-31T04:07:36.330Z,6.07
2019-01-31T04:12:41.069Z,6.59
2019-01-31T04:17:45.810Z,6.43
2019-01-31T04:22:50.779Z,6.76
2019-01-31T04:27:55.399Z,6.28
2019-01-31T04:33:00.141Z,6.14
2019-01-31T04:38:04.988Z,6.70
2019-01-31T04:43:09.619Z,5.37
2019-01-31T04:48:14.371Z,5.61
2019-01-31T04:53:18.999Z,5.23
2019-01-31T04:58:23.647Z,5.35
2019-01-31T05:03:28.599Z,5.17
2019-01-31T05:08:34.452Z,4.83
2019-01-31T05:13:39.415Z,4.96
2019-01-31T05:18:44.053Z,4.49
2019-01-31T05:23:48.901Z,4.59
2019-01-31T05:28:53.641Z,4.63
2019-01-31T05:33:58.488Z,5.96
2019-01-31T05:39:04.355Z,5.97
2019-01-31T05:44:09.110Z,5.24
2019-01-31T05:49:13.950Z,6.14
2019-01-31T05:54:18.684Z,6.02
2019-01-31T05:59:23.535Z,6.17
2019-01-31T06:04:28.176Z,6.42
2019-01-31T06:09:32.810Z,6.25
2019-01-31T06:14:42.577Z,6.27
2019-01-31T06:19:51.904Z,5.38
2019-01-31T06:25:01.537Z,5.55
2019-01-31T06:30:14.097Z,5.05
2019-01-31T06:35:19.873Z,5.53
2019-01-31T06:40:24.615Z,5.51
2019-01-31T06:45:29.240Z,6.10
2019-01-31T06:50:33.898Z,5.98
2019-01-31T06:55:38.637Z,6.03
2019-01-31T07:00:43.481Z,6.16
2019-01-31T07:05:48.228Z,6.59
2019-01-31T07:10:52.860Z,7.00
2019-01-31T07:15:57.624Z,6.95
2019-01-31T07:21:02.353Z,7.02
2019-01-31T07:26:07.001Z,7.58
2019-01-31T07:31:11.738Z,7.88
2019-01-31T07:57:03.051Z,8.88
2019-01-31T08:02:07.800Z,7.92
2019-01-31T08:07:12.538Z,7.90
2019-01-31T08:12:17.302Z,8.20
2019-01-31T08:17:21.922Z,8.62
2019-01-31T09:29:54.542Z,12.10
2019-01-31T09:35:11.166Z,12.69
2019-01-31T09:40:37.545Z,12.96
2019-01-31T09:45:54.240Z,12.88
2019-01-31T09:51:17.006Z,12.92
2019-01-31T09:56:43.149Z,13.02
2019-01-31T10:02:10.417Z,11.77
2019-01-31T10:07:39.541Z,12.73
2019-01-31T10:12:50.125Z,13.26
2019-01-31T10:18:28.387Z,13.18
2019-01-31T10:24:06.677Z,13.93
2019-01-31T10:29:18.897Z,13.41
2019-01-31T10:34:32.747Z,14.02
2019-01-31T10:39:52.751Z,14.02
2019-01-31T10:45:09.575Z,13.36
2019-01-31T10:50:48.010Z,13.90
2019-01-31T10:56:01.865Z,13.75
2019-01-31T11:01:18.488Z,14.27
2019-01-31T11:06:52.207Z,14.29
2019-01-31T11:12:04.431Z,14.20
2019-01-31T11:17:12.348Z,14.05
2019-01-31T11:22:28.325Z,14.36
2019-01-31T11:27:56.935Z,13.94
2019-01-31T11:33:07.434Z,13.90
2019-01-31T11:38:27.434Z,14.27
2019-01-31T11:43:40.886Z,14.43
2019-01-31T11:48:54.427Z,14.28
2019-01-31T11:54:07.879Z,14.27
2019-01-31T11:59:12.620Z,14.28
2019-01-31T12:04:17.473Z,14.45
2019-01-31T12:09:22.217Z,14.33
2019-01-31T12:14:27.065Z,14.28
2019-01-31T12:19:31.595Z,14.11
2019-01-31T12:24:36.842Z,14.46
2019-01-31T12:29:41.421Z,14.62
2019-01-31T12:34:46.129Z,14.79
2019-01-31T12:39:52.166Z,14.22
2019-01-31T12:44:57.049Z,14.74
2019-01-31T12:50:01.793Z,14.73
2019-01-31T12:55:07.202Z,14.95
2019-01-31T13:24:53.810Z,14.86
2019-01-31T13:29:58.727Z,14.99
2019-01-31T13:35:03.703Z,14.99
2019-01-31T13:40:16.741Z,15.00
2019-01-31T13:45:27.890Z,14.96
2019-01-31T13:50:32.786Z,14.82
2019-01-31T13:55:37.674Z,14.66
2019-01-31T14:00:42.679Z,14.67
2019-01-31T14:05:47.434Z,14.71
2019-01-31T14:10:52.165Z,14.65
2019-01-31T14:15:57.121Z,14.47
2019-01-31T14:21:01.961Z,14.48
2019-01-31T14:26:06.706Z,13.51
2019-01-31T14:31:11.547Z,13.16
2019-01-31T14:36:16.394Z,11.55
2019-01-31T14:41:21.055Z,11.39
2019-01-31T14:46:25.939Z,12.27
2019-01-31T14:51:30.825Z,12.37
2019-01-31T14:56:35.576Z,12.47
2019-01-31T15:01:40.310Z,11.91
2019-01-31T15:06:45.917Z,10.89
2019-01-31T15:11:50.721Z,11.54
2019-01-31T15:16:56.080Z,11.75
2019-01-31T15:22:00.841Z,11.96
2019-01-31T15:27:05.566Z,11.82
2019-01-31T15:32:11.201Z,11.58
2019-01-31T15:37:17.102Z,11.45
2019-01-31T15:42:21.845Z,11.23
2019-01-31T15:47:26.587Z,11.23
2019-01-31T15:52:31.326Z,11.05
2019-01-31T15:57:35.959Z,11.16
2019-01-31T16:02:40.711Z,11.20
2019-01-31T16:07:45.557Z,11.51
2019-01-31T16:12:50.326Z,11.29
2019-01-31T16:17:55.147Z,10.88
2019-01-31T16:22:59.887Z,10.78
2019-01-31T16:28:04.941Z,10.91
2019-01-31T16:33:09.683Z,10.53
2019-01-31T16:38:14.332Z,11.05
2019-01-31T16:43:19.172Z,10.40
2019-01-31T16:48:24.329Z,10.33
2019-01-31T16:53:29.064Z,10.07
2019-01-31T16:58:34.022Z,9.64
2019-01-31T17:03:38.612Z,9.85
2019-01-31T17:08:43.496Z,9.30
2019-01-31T17:13:49.368Z,9.38
2019-01-31T17:18:54.980Z,9.82
2019-01-31T17:24:00.084Z,10.52
2019-01-31T17:29:05.043Z,10.72
2019-01-31T17:34:09.877Z,10.54
2019-01-31T17:39:15.026Z,9.91
2019-01-31T17:44:19.872Z,10.09
2019-01-31T17:49:25.744Z,10.00
2019-01-31T17:54:30.813Z,10.00
2019-01-31T17:59:36.150Z,9.74
2019-01-31T18:04:40.893Z,9.85
2019-01-31T18:09:47.096Z,9.68
2019-01-31T18:14:51.813Z,9.85
2019-01-31T18:19:57.418Z,9.92
2019-01-31T18:25:02.029Z,10.05
2019-01-31T18:30:09.830Z,9.23
2019-01-31T18:35:15.011Z,9.69
2019-01-31T18:40:24.848Z,9.61
2019-01-31T18:45:32.155Z,9.34
2019-01-31T18:50:39.416Z,9.59
2019-01-31T18:55:44.302Z,9.49
2019-01-31T19:00:49.456Z,9.74
2019-01-31T19:05:54.563Z,9.81
2019-01-31T19:11:01.251Z,9.67
2019-01-31T19:16:06.243Z,9.25
2019-01-31T19:21:11.103Z,8.83
2019-01-31T19:26:15.831Z,8.84
2019-01-31T19:31:21.084Z,8.97
2019-01-31T19:36:25.829Z,8.64
2019-01-31T19:41:30.528Z,9.05
2019-01-31T19:46:36.239Z,8.75
2019-01-31T19:51:40.965Z,8.47
2019-01-31T19:56:45.818Z,8.00
2019-01-31T20:01:51.591Z,7.58
2019-01-31T20:06:56.454Z,7.01
2019-01-31T20:12:01.280Z,7.48
2019-01-31T20:17:08.553Z,7.09
2019-01-31T20:22:13.426Z,7.21
2019-01-31T20:27:18.274Z,7.70
2019-01-31T20:32:23.124Z,7.61
2019-01-31T20:37:28.273Z,7.32
2019-01-31T20:42:33.014Z,7.31
2019-01-31T20:47:37.868Z,6.98
2019-01-31T20:52:43.007Z,6.82
2019-01-31T20:57:47.957Z,6.99
2019-01-31T21:02:53.946Z,6.68
2019-01-31T21:07:58.672Z,6.93
2019-01-31T21:13:03.398Z,7.53
2019-01-31T21:18:08.362Z,7.21
2019-01-31T21:23:14.235Z,7.21
2019-01-31T21:28:18.974Z,7.67
2019-01-31T21:33:23.734Z,7.33
2019-01-31T21:38:28.464Z,7.64
2019-01-31T21:43:34.737Z,7.64
2019-01-31T21:48:39.787Z,7.70
2019-01-31T21:53:44.637Z,7.54
2019-01-31T21:58:49.382Z,7.37
2019-01-31T22:03:54.225Z,7.39
2019-01-31T22:08:58.759Z,7.58
2019-01-31T22:14:03.400Z,7.04
2019-01-31T22:19:08.139Z,7.07
2019-01-31T22:24:12.886Z,7.06
2019-01-31T22:29:17.624Z,7.35
2019-01-31T22:34:22.375Z,7.12
2019-01-31T22:39:27.215Z,6.72
2019-01-31T22:44:32.067Z,6.90
2019-01-31T22:49:36.914Z,6.57
2019-01-31T22:54:41.712Z,6.75
2019-01-31T22:59:46.492Z,6.88
2019-01-31T23:04:53.387Z,6.73
2019-01-31T23:09:58.439Z,6.75
2019-01-31T23:15:03.185Z,6.50
2019-01-31T23:20:11.199Z,6.40
2019-01-31T23:25:16.141Z,6.08
2019-01-31T23:30:20.954Z,6.50
2019-01-31T23:35:25.754Z,6.23
2019-01-31T23:40:30.471Z,6.57
2019-01-31T23:45:35.120Z,6.31
2019-01-31T23:50:39.859Z,6.39
2019-01-31T23:55:44.498Z,6.61
